Time;durP1;ratioP1;P1;durP2;ratioP2;P2;SDS_P1;SDS_P2;PMS_P1;PMS_P2;Temp;Humidity;BMP_temperature;BMP_pressure;BME280_temperature;BME280_humidity;BME280_pressure;Samples;Min_cycle;Max_cycle;Signal;HPM_P1;HPM_P2
2021/12/28 00:00:47;;;;;;;10.88;7.45;;;;;;;19.88;43.62;95798.59;10628915;27;20061;-51
2021/12/28 00:06:08;;;;;;;11.43;7.18;;;;;;;19.86;43.54;95790.84;10578501;27;20075;-53
2021/12/28 00:11:27;;;;;;;9.13;6.65;;;;;;;19.85;43.24;95794.66;10610736;27;20051;-53
2021/12/28 00:22:32;;;;;;;8.75;6.93;;;;;;;19.83;43.39;95786.13;10559886;27;20146;-50
2021/12/28 00:27:52;;;;;;;8.40;6.80;;;;;;;19.79;43.10;95785.25;10614548;27;20099;-51
2021/12/28 00:33:11;;;;;;;10.20;6.75;;;;;;;19.78;43.22;95780.19;10612416;27;20055;-51
2021/12/28 00:38:32;;;;;;;9.60;7.00;;;;;;;19.74;43.16;95763.91;10611380;27;20042;-51
2021/12/28 00:43:52;;;;;;;8.73;6.45;;;;;;;19.74;43.02;95767.41;10612315;27;20070;-51
2021/12/28 00:49:12;;;;;;;9.50;6.18;;;;;;;19.72;43.09;95775.06;10589375;27;20048;-51
2021/12/28 00:54:31;;;;;;;7.85;6.15;;;;;;;19.70;43.03;95777.31;10593080;28;20044;-51
2021/12/28 00:59:50;;;;;;;8.77;6.10;;;;;;;19.70;42.91;95774.63;10614529;28;20051;-51
2021/12/28 01:05:11;;;;;;;8.93;6.28;;;;;;;19.68;42.89;95789.59;10624369;27;20039;-53
2021/12/28 01:10:45;;;;;;;9.00;6.03;;;;;;;19.67;42.89;95777.22;10618490;27;20054;-51
2021/12/28 01:16:05;;;;;;;9.65;5.82;;;;;;;19.64;42.86;95772.50;10585600;27;20055;-53
2021/12/28 01:21:24;;;;;;;8.23;6.05;;;;;;;19.63;42.69;95769.03;10594162;27;20069;-53
2021/12/28 01:26:45;;;;;;;8.05;6.20;;;;;;;19.61;42.80;95765.91;10599974;27;20053;-51
2021/12/28 01:32:08;;;;;;;7.57;5.88;;;;;;;19.60;42.69;95761.63;10614423;27;20043;-54
2021/12/28 01:37:27;;;;;;;7.80;5.80;;;;;;;19.59;42.79;95748.47;10593933;27;20494;-51
2021/12/28 01:43:11;;;;;;;7.72;5.85;;;;;;;19.57;42.77;95754.22;10601471;27;20048;-51
2021/12/28 01:48:37;;;;;;;6.63;5.70;;;;;;;19.56;42.72;95749.94;10598041;27;20039;-51
2021/12/28 01:53:57;;;;;;;7.57;5.63;;;;;;;19.53;42.67;95748.72;10595574;27;20055;-51
2021/12/28 01:59:19;;;;;;;7.03;5.45;;;;;;;19.52;42.83;95749.88;10615533;27;20036;-52
2021/12/28 02:04:38;;;;;;;6.22;5.45;;;;;;;19.50;42.61;95746.75;10629950;27;20401;-51
2021/12/28 02:09:58;;;;;;;6.10;5.22;;;;;;;19.49;42.53;95753.25;10602118;27;20533;-51
2021/12/28 02:15:17;;;;;;;6.50;5.45;;;;;;;19.47;42.59;95766.34;10604097;27;20105;-51
2021/12/28 02:20:37;;;;;;;6.20;5.13;;;;;;;19.46;42.39;95755.88;10608834;27;20032;-50
2021/12/28 02:25:57;;;;;;;7.07;5.75;;;;;;;19.43;42.46;95757.34;10597317;27;20052;-50
2021/12/28 02:31:16;;;;;;;5.80;5.22;;;;;;;19.42;42.54;95757.69;10589539;27;20059;-51
2021/12/28 02:36:36;;;;;;;5.85;5.25;;;;;;;19.41;42.47;95750.75;10586691;27;20048;-50
2021/12/28 02:41:56;;;;;;;5.53;4.93;;;;;;;19.40;42.48;95744.53;10631679;27;20035;-51
2021/12/28 02:47:17;;;;;;;6.30;5.30;;;;;;;19.37;42.40;95737.16;10590177;27;20058;-51
2021/12/28 02:52:38;;;;;;;6.78;4.95;;;;;;;19.36;42.45;95736.34;10613706;27;20647;-50
2021/12/28 02:58:03;;;;;;;6.88;5.40;;;;;;;19.34;42.27;95708.91;10618344;27;20055;-51
2021/12/28 03:03:25;;;;;;;6.30;4.80;;;;;;;19.33;42.51;95706.56;10589710;27;20058;-51
2021/12/28 03:08:49;;;;;;;5.60;4.60;;;;;;;19.32;42.42;95702.28;10595117;27;20059;-53
2021/12/28 03:14:09;;;;;;;5.40;4.53;;;;;;;19.30;42.25;95704.56;10620161;27;20051;-51
2021/12/28 03:19:28;;;;;;;5.15;4.53;;;;;;;19.29;42.29;95697.59;10625549;27;20049;-51
2021/12/28 03:24:47;;;;;;;5.40;4.63;;;;;;;19.28;42.36;95706.81;10618385;27;20043;-53
2021/12/28 03:30:10;;;;;;;5.13;4.63;;;;;;;19.26;42.31;95714.50;10625507;27;20611;-51
2021/12/28 03:35:30;;;;;;;5.75;4.68;;;;;;;19.25;42.29;95702.09;10599249;27;20062;-51
2021/12/28 03:40:50;;;;;;;4.68;4.28;;;;;;;19.23;42.41;95694.38;10631720;27;20091;-51
2021/12/28 03:46:10;;;;;;;5.63;4.47;;;;;;;19.22;42.20;95673.13;10621535;27;20050;-50
2021/12/28 03:51:30;;;;;;;5.88;4.50;;;;;;;19.20;42.15;95676.16;10603073;27;20050;-51
2021/12/28 03:56:50;;;;;;;5.28;4.63;;;;;;;19.17;42.35;95680.34;10579395;27;20047;-51
2021/12/28 04:02:09;;;;;;;5.28;4.60;;;;;;;19.17;42.12;95674.19;10616977;27;20051;-50
2021/12/28 04:07:29;;;;;;;5.47;4.45;;;;;;;19.15;42.15;95655.63;10604842;27;20093;-51
2021/12/28 04:12:48;;;;;;;5.13;4.53;;;;;;;19.13;42.27;95647.09;10599022;27;20051;-53
2021/12/28 04:18:08;;;;;;;5.45;4.22;;;;;;;19.11;42.08;95659.34;10600145;27;20442;-51
2021/12/28 04:23:27;;;;;;;4.80;4.30;;;;;;;19.10;42.15;95661.28;10624043;27;20035;-50
2021/12/28 04:28:47;;;;;;;4.78;4.25;;;;;;;19.08;42.10;95658.13;10589933;27;20054;-52
2021/12/28 04:34:06;;;;;;;4.25;3.72;;;;;;;19.07;42.25;95644.97;10595633;27;20066;-53
2021/12/28 04:39:26;;;;;;;4.53;3.90;;;;;;;19.06;42.23;95638.81;10601115;27;20050;-51
2021/12/28 04:44:49;;;;;;;4.40;4.00;;;;;;;19.05;42.28;95634.56;10589748;27;20046;-51
2021/12/28 04:50:09;;;;;;;4.47;4.05;;;;;;;19.02;42.24;95620.97;10596138;28;20047;-51
2021/12/28 04:55:29;;;;;;;4.93;4.30;;;;;;;19.01;42.10;95614.00;10591143;27;20046;-51
2021/12/28 05:00:50;;;;;;;4.50;3.83;;;;;;;19.00;42.15;95615.91;10583204;28;20051;-50
2021/12/28 05:06:10;;;;;;;4.50;3.97;;;;;;;18.98;42.04;95618.19;10620332;27;20043;-52
2021/12/28 05:11:31;;;;;;;4.65;4.18;;;;;;;18.98;42.01;95618.19;10615784;27;20425;-50
2021/12/28 05:16:50;;;;;;;4.95;4.20;;;;;;;18.96;42.37;95596.16;10582325;28;20045;-53
2021/12/28 05:22:12;;;;;;;4.60;3.80;;;;;;;18.95;42.90;95594.56;10614163;27;20421;-52
2021/12/28 05:27:31;;;;;;;4.10;3.70;;;;;;;18.94;42.79;95614.63;10607015;27;20047;-51
2021/12/28 05:32:51;;;;;;;3.97;3.60;;;;;;;18.95;42.71;95624.25;10599272;27;20033;-52
2021/12/28 05:38:12;;;;;;;4.90;3.90;;;;;;;18.96;42.95;95631.25;10612357;28;20108;-50
2021/12/28 05:43:32;;;;;;;4.07;3.60;;;;;;;19.00;42.86;95631.34;10575336;28;20052;-51
2021/12/28 05:48:52;;;;;;;4.20;3.78;;;;;;;19.01;43.20;95628.25;10599568;28;20039;-50
2021/12/28 05:54:12;;;;;;;4.22;3.55;;;;;;;19.02;43.24;95610.19;10614774;27;20047;-50
2021/12/28 05:59:31;;;;;;;5.13;3.50;;;;;;;19.06;43.20;95611.03;10612562;27;20048;-51
2021/12/28 06:04:51;;;;;;;5.63;3.55;;;;;;;19.08;43.43;95609.56;10605948;27;20044;-51
2021/12/28 06:10:11;;;;;;;4.20;3.72;;;;;;;19.11;43.41;95594.56;10622729;27;20100;-52
2021/12/28 06:15:31;;;;;;;4.90;3.97;;;;;;;19.15;43.25;95592.72;10609536;27;20058;-50
2021/12/28 06:20:50;;;;;;;6.38;3.38;;;;;;;19.17;43.40;95593.19;10601146;27;20069;-51
2021/12/28 06:26:10;;;;;;;5.90;3.95;;;;;;;19.20;43.33;95595.16;10620468;27;20577;-51
2021/12/28 06:31:30;;;;;;;11.10;5.03;;;;;;;19.25;43.51;95591.41;10620364;27;20048;-50
2021/12/28 06:36:49;;;;;;;12.30;4.78;;;;;;;19.28;43.47;95599.59;10611998;27;20047;-50
2021/12/28 06:42:09;;;;;;;14.52;5.75;;;;;;;19.32;43.56;95607.78;10608117;27;20707;-54
2021/12/28 06:47:29;;;;;;;12.82;5.80;;;;;;;19.36;43.62;95601.31;10596684;27;20055;-51
2021/12/28 06:52:48;;;;;;;12.40;5.25;;;;;;;19.40;43.66;95614.13;10601181;27;20047;-51
2021/12/28 06:58:08;;;;;;;12.30;6.05;;;;;;;19.43;43.42;95621.53;10612521;27;20051;-51
2021/12/28 07:03:28;;;;;;;11.55;5.22;;;;;;;19.44;43.47;95629.28;10601589;27;20055;-51
2021/12/28 07:08:47;;;;;;;14.77;5.70;;;;;;;19.47;43.39;95611.59;10596198;27;20150;-52
2021/12/28 07:14:07;;;;;;;14.48;5.88;;;;;;;19.49;43.35;95607.41;10600672;27;20047;-51
2021/12/28 07:19:26;;;;;;;15.30;6.18;;;;;;;19.49;43.46;95607.41;10621580;27;20081;-51
2021/12/28 07:24:45;;;;;;;13.77;5.57;;;;;;;19.50;43.41;95600.88;10625368;27;20054;-50
2021/12/28 07:30:08;;;;;;;12.45;5.43;;;;;;;19.51;43.58;95590.84;10591350;27;20624;-52
2021/12/28 07:35:27;;;;;;;13.93;5.35;;;;;;;19.51;43.43;95594.31;10613827;27;20032;-50
2021/12/28 07:40:47;;;;;;;12.15;5.32;;;;;;;19.53;43.32;95597.44;10615468;27;20047;-51
2021/12/28 07:46:07;;;;;;;8.65;4.72;;;;;;;19.53;43.22;95589.34;10621213;27;20581;-51
2021/12/28 07:51:26;;;;;;;14.77;5.47;;;;;;;19.53;43.04;95589.34;10624661;27;20509;-53
2021/12/28 07:56:46;;;;;;;9.55;5.05;;;;;;;19.54;43.29;95590.13;10581577;27;20048;-52
2021/12/28 08:02:07;;;;;;;10.75;5.03;;;;;;;19.54;42.99;95588.22;10614346;27;20061;-52
2021/12/28 08:07:26;;;;;;;10.00;4.57;;;;;;;19.55;43.09;95580.91;10574067;28;20043;-50
2021/12/28 08:12:47;;;;;;;8.00;4.75;;;;;;;19.55;43.10;95564.69;10577563;27;20101;-50
2021/12/28 08:18:09;;;;;;;10.23;5.05;;;;;;;19.55;42.85;95559.28;10591078;27;20063;-51
2021/12/28 08:23:29;;;;;;;8.57;4.72;;;;;;;19.54;43.09;95553.09;10596255;27;20047;-53
2021/12/28 08:28:48;;;;;;;8.95;4.72;;;;;;;19.55;43.16;95538.44;10624649;27;20114;-53
2021/12/28 08:34:07;;;;;;;7.88;4.35;;;;;;;19.59;43.07;95526.94;10614641;27;20417;-52
2021/12/28 08:39:27;;;;;;;9.55;4.40;;;;;;;19.56;43.04;95523.81;10621186;27;20034;-51
2021/12/28 08:44:47;;;;;;;7.45;4.65;;;;;;;19.56;42.98;95558.94;10614189;27;20084;-51
2021/12/28 08:50:08;;;;;;;7.93;4.38;;;;;;;19.56;43.23;95564.34;10613809;28;20061;-54
2021/12/28 08:55:28;;;;;;;7.88;4.63;;;;;;;19.57;42.86;95581.31;10606509;28;20497;-51
2021/12/28 09:00:47;;;;;;;6.07;4.00;;;;;;;19.56;43.09;95599.47;10609168;28;20048;-51
2021/12/28 09:06:06;;;;;;;6.78;4.28;;;;;;;19.54;42.92;95601.72;10627416;27;20050;-50
2021/12/28 09:11:25;;;;;;;7.57;4.43;;;;;;;19.55;43.01;95592.47;10611771;28;20055;-50
2021/12/28 09:16:45;;;;;;;6.18;4.07;;;;;;;19.55;42.99;95589.00;10612522;28;20050;-51
2021/12/28 09:22:05;;;;;;;5.95;3.97;;;;;;;19.54;42.90;95579.31;10610186;28;20058;-51
2021/12/28 09:27:25;;;;;;;5.63;3.80;;;;;;;19.53;43.05;95583.16;10604309;27;20048;-51
2021/12/28 09:32:44;;;;;;;7.80;4.05;;;;;;;19.52;43.18;95592.41;10627415;27;20043;-52
2021/12/28 09:38:05;;;;;;;6.22;4.07;;;;;;;19.53;43.08;95583.16;10617072;27;20493;-51
2021/12/28 09:43:25;;;;;;;5.38;3.70;;;;;;;19.51;43.28;95586.22;10607023;27;20405;-51
2021/12/28 09:48:45;;;;;;;7.32;3.80;;;;;;;19.52;43.22;95576.19;10617324;27;20055;-50
2021/12/28 09:54:05;;;;;;;6.53;3.88;;;;;;;19.51;43.22;95580.03;10617265;27;20107;-52
2021/12/28 09:59:26;;;;;;;5.65;3.90;;;;;;;19.49;43.20;95564.19;10619187;27;20035;-54
2021/12/28 10:05:04;;;;;;;5.32;3.60;;;;;;;19.49;43.07;95545.28;10628020;27;20121;-50
2021/12/28 10:10:28;;;;;;;6.35;3.97;;;;;;;19.47;43.00;95525.94;10620640;27;20768;-51
2021/12/28 10:15:50;;;;;;;5.10;3.45;;;;;;;19.46;43.27;95518.19;10615836;27;20043;-51
2021/12/28 10:21:09;;;;;;;5.82;3.80;;;;;;;19.45;43.16;95517.41;10616026;27;20055;-51
2021/12/28 10:26:29;;;;;;;4.53;3.47;;;;;;;19.45;43.27;95525.50;10618911;27;20058;-50
2021/12/28 10:32:35;;;;;;;5.10;3.30;;;;;;;19.44;43.22;95532.03;10616775;27;20058;-51
2021/12/28 10:38:07;;;;;;;5.95;3.65;;;;;;;19.43;43.13;95535.13;10612769;27;20070;-51
2021/12/28 10:43:28;;;;;;;5.97;3.50;;;;;;;19.42;43.21;95512.69;10614771;27;20072;-50
2021/12/28 10:48:51;;;;;;;7.15;3.60;;;;;;;19.41;43.33;95500.34;10615891;27;20433;-50
2021/12/28 10:59:34;;;;;;;4.80;3.38;;;;;;;19.39;43.40;95480.25;10616219;27;20047;-50
2021/12/28 11:04:53;;;;;;;4.10;3.33;;;;;;;19.38;43.19;95484.06;10605539;27;20048;-52
2021/12/28 11:10:13;;;;;;;4.13;3.05;;;;;;;19.38;42.95;95494.88;10616597;27;20417;-50
2021/12/28 11:15:37;;;;;;;4.20;3.00;;;;;;;19.35;42.46;95493.66;10662104;27;20043;-50
2021/12/28 11:20:59;;;;;;;4.18;2.97;;;;;;;19.34;42.45;95473.19;10664512;27;20094;-50
2021/12/28 11:26:30;;;;;;;5.35;3.15;;;;;;;19.32;42.21;95464.66;10678407;27;20050;-52
2021/12/28 11:32:01;;;;;;;3.83;3.10;;;;;;;19.31;42.37;95463.13;10663696;27;20047;-50
2021/12/28 11:37:23;;;;;;;4.65;3.45;;;;;;;19.31;42.26;95463.13;10677744;27;20047;-50
2021/12/28 11:42:43;;;;;;;3.47;2.92;;;;;;;19.29;42.18;95454.59;10663988;27;20431;-51
2021/12/28 11:48:03;;;;;;;3.58;3.08;;;;;;;19.28;42.12;95471.91;10647604;27;20042;-50
2021/12/28 11:53:23;;;;;;;3.42;2.75;;;;;;;19.26;42.13;95466.09;10676388;27;20122;-50
2021/12/28 11:58:57;;;;;;;4.68;2.85;;;;;;;19.25;42.06;95464.50;10663424;27;20054;-53
2021/12/28 12:04:43;;;;;;;4.10;3.05;;;;;;;19.23;41.99;95455.97;10662981;27;20054;-51
2021/12/28 12:10:06;;;;;;;4.28;2.97;;;;;;;19.21;42.04;95442.84;10662284;27;20111;-52
2021/12/28 12:15:28;;;;;;;3.78;2.90;;;;;;;19.19;42.10;95418.13;10662395;27;20174;-50
2021/12/28 12:20:51;;;;;;;3.85;2.92;;;;;;;19.18;41.94;95413.84;10646852;27;20051;-51
2021/12/28 12:26:17;;;;;;;4.22;3.42;;;;;;;19.16;42.08;95397.25;10661687;27;20451;-50
2021/12/28 12:31:41;;;;;;;3.60;3.20;;;;;;;19.15;42.09;95396.47;10662067;27;20062;-50
2021/12/28 12:37:00;;;;;;;4.68;3.25;;;;;;;19.13;42.00;95370.94;10661942;27;20402;-51
2021/12/28 12:42:20;;;;;;;3.45;2.70;;;;;;;19.11;42.04;95363.22;10661791;27;20058;-50
2021/12/28 12:47:39;;;;;;;3.67;3.17;;;;;;;19.10;42.04;95364.34;10661007;27;20047;-52
2021/12/28 12:53:02;;;;;;;4.30;3.33;;;;;;;19.08;41.87;95353.13;10661634;27;20054;-50
2021/12/28 12:58:23;;;;;;;3.55;2.65;;;;;;;19.07;41.78;95348.88;10659393;27;20111;-51
2021/12/28 13:03:42;;;;;;;4.25;3.20;;;;;;;19.06;41.89;95324.94;10678960;27;20042;-50
2021/12/28 13:09:08;;;;;;;3.67;2.80;;;;;;;19.04;41.93;95308.31;10668831;27;20055;-50
2021/12/28 13:14:28;;;;;;;3.88;2.88;;;;;;;19.03;41.86;95312.13;10683576;27;20039;-50
2021/12/28 13:20:00;;;;;;;3.33;2.78;;;;;;;19.02;41.70;95299.78;10669772;27;20073;-50
2021/12/28 13:25:26;;;;;;;3.65;3.10;;;;;;;19.00;41.82;95291.28;10683283;27;20117;-50
2021/12/28 13:30:46;;;;;;;3.20;2.83;;;;;;;18.98;41.79;95280.06;10683115;27;20034;-50
2021/12/28 13:36:06;;;;;;;3.55;2.75;;;;;;;18.98;41.78;95266.56;10682796;27;20035;-50
2021/12/28 13:41:26;;;;;;;3.65;3.03;;;;;;;18.96;41.74;95264.22;10669060;27;20046;-51
2021/12/28 13:46:46;;;;;;;2.85;2.50;;;;;;;18.94;41.86;95266.50;10668610;27;20046;-54
2021/12/28 13:52:06;;;;;;;3.20;2.75;;;;;;;18.91;41.88;95257.19;10682195;27;20039;-50
2021/12/28 13:57:25;;;;;;;3.33;2.83;;;;;;;18.91;41.84;95240.22;10672302;27;20064;-51
2021/12/28 14:02:54;;;;;;;3.70;3.08;;;;;;;18.89;42.00;95237.09;10681879;27;20043;-51
2021/12/28 14:08:18;;;;;;;3.30;2.70;;;;;;;18.89;41.95;95237.09;10668027;27;20426;-50
2021/12/28 14:13:41;;;;;;;4.78;3.83;;;;;;;18.83;40.50;95223.09;10607726;27;20055;-52
2021/12/28 14:19:00;;;;;;;4.28;3.58;;;;;;;18.82;41.35;95215.38;10603490;27;20059;-52
2021/12/28 14:24:19;;;;;;;3.97;3.58;;;;;;;18.82;41.51;95209.97;10601974;27;20051;-50
2021/12/28 14:29:39;;;;;;;3.97;3.40;;;;;;;18.85;41.81;95220.06;10607570;27;20047;-50
2021/12/28 14:35:05;;;;;;;4.35;3.30;;;;;;;18.87;41.65;95215.09;10614993;27;20051;-50
2021/12/28 14:40:30;;;;;;;4.78;3.13;;;;;;;18.87;41.68;95220.47;10618393;27;20055;-53
2021/12/28 14:45:50;;;;;;;3.63;2.90;;;;;;;18.88;41.98;95222.06;10619741;27;20039;-52
2021/12/28 14:51:09;;;;;;;3.40;3.10;;;;;;;18.90;42.03;95217.06;10623159;27;20039;-51
2021/12/28 14:56:30;;;;;;;3.30;3.00;;;;;;;18.93;42.07;95210.94;10619039;27;20054;-51
2021/12/28 15:01:52;;;;;;;3.70;3.03;;;;;;;18.95;42.08;95212.16;10608454;27;20050;-51
2021/12/28 15:07:13;;;;;;;2.97;2.67;;;;;;;18.98;41.98;95213.38;10613237;27;20058;-50
2021/12/28 15:12:39;;;;;;;3.40;3.10;;;;;;;19.02;42.09;95221.53;10614494;27;20057;-51
2021/12/28 15:17:58;;;;;;;3.35;3.05;;;;;;;19.04;42.04;95221.94;10615426;27;20047;-50
2021/12/28 15:23:18;;;;;;;3.28;2.85;;;;;;;19.06;42.09;95217.75;10612566;27;20055;-52
2021/12/28 15:28:37;;;;;;;3.10;2.80;;;;;;;19.09;42.10;95218.94;10608035;27;20059;-55
2021/12/28 15:33:57;;;;;;;2.95;2.65;;;;;;;19.11;42.16;95219.34;10617450;27;20055;-50
2021/12/28 15:39:17;;;;;;;3.17;2.70;;;;;;;19.13;42.00;95207.09;10610623;27;20047;-50
2021/12/28 15:44:37;;;;;;;3.50;2.85;;;;;;;19.14;42.02;95203.22;10612243;27;20059;-51
2021/12/28 15:49:56;;;;;;;3.55;3.08;;;;;;;19.17;42.13;95197.13;10625734;27;20043;-51
2021/12/28 15:55:16;;;;;;;3.63;2.80;;;;;;;19.19;42.19;95193.28;10620391;27;20100;-51
2021/12/28 16:00:35;;;;;;;3.60;2.80;;;;;;;19.22;42.18;95196.03;10618921;27;20038;-52
2021/12/28 16:05:56;;;;;;;3.60;3.15;;;;;;;19.25;41.91;95199.91;10620369;27;20047;-53
2021/12/28 16:11:16;;;;;;;5.55;2.60;;;;;;;19.29;42.07;95195.38;10614146;27;20467;-50
2021/12/28 16:16:36;;;;;;;4.05;2.97;;;;;;;19.32;41.97;95181.16;10619202;27;20039;-51
2021/12/28 16:21:55;;;;;;;3.28;2.95;;;;;;;19.33;42.03;95170.00;10580194;27;20055;-50
2021/12/28 16:27:15;;;;;;;2.90;2.60;;;;;;;19.36;42.04;95174.66;10627659;27;20047;-50
2021/12/28 16:32:34;;;;;;;3.20;2.65;;;;;;;19.41;42.08;95164.72;10603059;27;20036;-51
2021/12/28 16:37:55;;;;;;;3.15;2.47;;;;;;;19.45;42.07;95169.00;10580910;27;20491;-51
2021/12/28 16:43:14;;;;;;;3.22;2.55;;;;;;;19.50;41.94;95160.63;10593166;27;20403;-50
2021/12/28 16:48:34;;;;;;;3.40;3.05;;;;;;;19.54;41.86;95155.25;10602429;27;20512;-50
2021/12/28 16:53:54;;;;;;;2.83;2.30;;;;;;;19.58;41.80;95155.28;10616980;28;20508;-52
2021/12/28 16:59:14;;;;;;;3.20;2.53;;;;;;;19.63;42.09;95157.69;10573059;28;20123;-50
2021/12/28 17:04:35;;;;;;;3.10;2.42;;;;;;;19.66;41.76;95159.66;10570142;28;20069;-52
2021/12/28 17:09:55;;;;;;;2.80;2.58;;;;;;;19.69;41.70;95134.63;10551574;28;20583;-50
2021/12/28 17:15:15;;;;;;;2.58;2.38;;;;;;;19.75;41.73;95147.47;10571264;28;20482;-51
2021/12/28 17:20:35;;;;;;;2.50;2.30;;;;;;;19.78;41.64;95139.78;10540626;28;20060;-50
2021/12/28 17:25:54;;;;;;;4.70;3.90;;;;;;;19.76;38.15;95145.56;10542827;28;20052;-53
2021/12/28 17:31:14;;;;;;;4.30;3.78;;;;;;;19.78;39.99;95124.38;10571447;28;20058;-51
2021/12/28 17:36:34;;;;;;;3.90;3.50;;;;;;;19.85;40.28;95121.75;10572259;28;20500;-50
2021/12/28 17:41:54;;;;;;;3.75;2.95;;;;;;;19.91;40.78;95122.97;10584981;28;20152;-51
2021/12/28 17:47:14;;;;;;;4.70;2.70;;;;;;;19.95;40.84;95118.41;10569098;28;20047;-51
2021/12/28 17:52:35;;;;;;;4.47;2.60;;;;;;;20.01;41.16;95126.19;10576937;28;20043;-51
2021/12/28 17:57:55;;;;;;;3.90;2.70;;;;;;;20.07;41.21;95130.91;10590433;27;20074;-49
2021/12/28 18:03:22;;;;;;;3.42;2.75;;;;;;;20.11;41.49;95133.63;10611538;27;20452;-49
2021/12/28 18:08:41;;;;;;;2.67;2.47;;;;;;;20.18;41.63;95132.97;10608837;27;20054;-51
2021/12/28 18:14:01;;;;;;;3.78;2.75;;;;;;;20.22;41.88;95133.78;10582941;27;20075;-51
2021/12/28 18:19:22;;;;;;;3.40;2.50;;;;;;;20.25;41.91;95119.53;10615888;27;20031;-50
2021/12/28 18:24:41;;;;;;;3.00;2.65;;;;;;;20.27;41.80;95115.31;10616310;27;20397;-49
2021/12/28 18:30:01;;;;;;;2.60;2.40;;;;;;;20.30;41.73;95108.38;10617854;27;20040;-48
2021/12/28 18:35:23;;;;;;;3.35;2.38;;;;;;;20.34;41.43;95118.06;10591886;27;20059;-49
2021/12/28 18:40:43;;;;;;;4.60;2.80;;;;;;;20.38;41.48;95111.94;10598868;27;20481;-49
2021/12/28 18:46:03;;;;;;;2.70;2.50;;;;;;;20.42;41.55;95101.94;10619179;27;20099;-55
2021/12/28 18:51:25;;;;;;;2.45;2.25;;;;;;;20.43;41.34;95122.44;10632879;27;20028;-57
2021/12/28 18:56:45;;;;;;;3.58;2.65;;;;;;;20.48;41.31;95132.91;10597643;27;20099;-60
2021/12/28 19:02:05;;;;;;;2.53;2.33;;;;;;;20.50;41.39;95136.00;10610964;27;20409;-59
2021/12/28 19:07:25;;;;;;;2.47;2.28;;;;;;;20.51;41.40;95137.59;10614804;27;20071;-51
2021/12/28 19:12:44;;;;;;;2.42;2.22;;;;;;;20.54;41.59;95139.53;10616958;27;20134;-52
2021/12/28 19:18:04;;;;;;;3.13;2.30;;;;;;;20.56;41.70;95145.34;10618160;27;20044;-51
2021/12/28 19:23:24;;;;;;;2.33;2.13;;;;;;;20.57;41.52;95170.50;10632571;27;20112;-50
2021/12/28 19:28:49;;;;;;;2.92;2.40;;;;;;;20.57;41.68;95165.09;10631651;27;20042;-50
2021/12/28 19:34:09;;;;;;;2.50;2.22;;;;;;;20.57;41.68;95179.38;10618603;27;20478;-50
2021/12/28 19:39:30;;;;;;;3.20;2.28;;;;;;;20.57;41.58;95190.22;10627889;27;20035;-51
2021/12/28 19:44:49;;;;;;;2.58;2.38;;;;;;;20.56;41.75;95194.03;10613668;27;20104;-50
2021/12/28 19:50:11;;;;;;;6.00;2.65;;;;;;;20.58;41.87;95199.09;10615213;27;20665;-58
2021/12/28 19:55:32;;;;;;;3.15;2.25;;;;;;;20.58;41.68;95218.03;10610729;27;20058;-51
2021/12/28 20:00:52;;;;;;;3.85;2.30;;;;;;;20.57;41.90;95200.25;10612630;27;20387;-48
2021/12/28 20:06:12;;;;;;;4.78;2.40;;;;;;;20.58;42.01;95186.38;10618093;27;20059;-49
2021/12/28 20:11:32;;;;;;;7.13;2.80;;;;;;;20.59;42.04;95165.50;10612338;27;20051;-50
2021/12/28 20:16:52;;;;;;;4.22;2.35;;;;;;;20.58;42.33;95180.97;10602680;27;20038;-50
2021/12/28 20:22:12;;;;;;;5.47;2.60;;;;;;;20.59;42.53;95192.56;10609452;27;20050;-49
2021/12/28 20:27:31;;;;;;;4.97;3.15;;;;;;;20.58;41.99;95174.75;10597164;27;20050;-51
2021/12/28 20:32:51;;;;;;;6.10;2.80;;;;;;;20.58;42.41;95178.25;10605578;27;20047;-52
2021/12/28 20:38:11;;;;;;;6.25;2.83;;;;;;;20.59;42.81;95176.31;10599976;27;20047;-50
2021/12/28 20:43:32;;;;;;;8.95;2.75;;;;;;;20.57;43.31;95159.69;10605940;27;20583;-52
2021/12/28 20:48:51;;;;;;;8.32;3.03;;;;;;;20.54;43.37;95153.06;10589544;27;20517;-50
2021/12/28 20:54:11;;;;;;;5.03;2.50;;;;;;;20.56;44.17;95156.16;10612763;27;20047;-50
2021/12/28 20:59:31;;;;;;;5.82;2.90;;;;;;;20.56;44.24;95167.00;10624394;27;20478;-50
2021/12/28 21:04:50;;;;;;;6.13;2.38;;;;;;;20.54;44.43;95161.97;10613364;28;21336;-50
2021/12/28 21:10:14;;;;;;;6.00;2.80;;;;;;;20.53;44.66;95167.75;10612220;27;20540;-49
2021/12/28 21:15:34;;;;;;;5.82;2.78;;;;;;;20.54;44.87;95180.91;10620799;27;20092;-49
2021/12/28 21:20:55;;;;;;;5.57;2.30;;;;;;;20.53;44.75;95181.28;10622159;27;20031;-50
2021/12/28 21:26:15;;;;;;;4.57;2.40;;;;;;;20.52;44.79;95188.63;10615665;27;20058;-50
2021/12/28 21:31:35;;;;;;;4.43;2.42;;;;;;;20.51;44.99;95194.41;10622337;27;20051;-51
2021/12/28 21:36:55;;;;;;;4.20;2.38;;;;;;;20.51;45.20;95200.56;10617190;27;20057;-49
2021/12/28 21:42:14;;;;;;;5.35;2.40;;;;;;;20.49;45.09;95204.81;10631392;27;20035;-49
2021/12/28 21:47:34;;;;;;;4.95;2.40;;;;;;;20.49;45.27;95215.63;10617865;27;20284;-50
2021/12/28 21:52:54;;;;;;;3.70;2.30;;;;;;;20.48;45.21;95212.16;10619117;27;20491;-50
2021/12/28 21:58:15;;;;;;;4.32;2.30;;;;;;;20.47;45.48;95223.34;10613914;27;20467;-50
2021/12/28 22:03:35;;;;;;;3.35;2.17;;;;;;;20.46;45.43;95225.22;10616265;27;20055;-50
2021/12/28 22:08:54;;;;;;;4.43;2.38;;;;;;;20.45;45.45;95233.75;10618686;27;20474;-50
2021/12/28 22:14:14;;;;;;;5.38;2.25;;;;;;;20.45;45.65;95239.16;10617512;27;20047;-50
2021/12/28 22:19:33;;;;;;;3.80;2.25;;;;;;;20.42;45.45;95232.53;10616747;27;20085;-50
2021/12/28 22:24:52;;;;;;;4.00;2.30;;;;;;;20.43;45.48;95241.44;10614949;27;20070;-50
2021/12/28 22:30:13;;;;;;;3.85;2.40;;;;;;;20.42;45.55;95226.34;10617015;27;20051;-50
2021/12/28 22:35:34;;;;;;;3.90;2.38;;;;;;;20.41;45.47;95241.03;10617981;27;20065;-50
2021/12/28 22:40:53;;;;;;;2.78;2.03;;;;;;;20.41;45.57;95251.84;10618753;27;20409;-50
2021/12/28 22:46:14;;;;;;;2.95;2.05;;;;;;;20.40;45.45;95237.53;10600194;27;20043;-50
2021/12/28 22:51:33;;;;;;;2.90;2.00;;;;;;;20.38;45.72;95247.94;10611175;27;20391;-50
2021/12/28 22:56:53;;;;;;;3.38;2.20;;;;;;;20.37;45.57;95237.50;10613242;27;20062;-50
2021/12/28 23:02:12;;;;;;;3.42;2.30;;;;;;;20.35;45.67;95241.34;10629710;27;20050;-49
2021/12/28 23:07:33;;;;;;;2.60;2.08;;;;;;;20.34;45.72;95247.13;10631055;27;20043;-50
2021/12/28 23:12:53;;;;;;;3.75;1.90;;;;;;;20.33;45.57;95261.78;10625530;27;20065;-49
2021/12/28 23:18:14;;;;;;;3.63;1.95;;;;;;;20.32;45.59;95258.28;10631778;27;20035;-51
2021/12/28 23:23:33;;;;;;;2.22;1.83;;;;;;;20.31;45.60;95258.69;10618760;27;20047;-49
2021/12/28 23:28:52;;;;;;;3.00;2.10;;;;;;;20.30;45.68;95260.59;10615203;27;20055;-50
2021/12/28 23:34:12;;;;;;;2.90;1.90;;;;;;;20.30;45.83;95254.41;10626377;27;20051;-49
2021/12/28 23:39:32;;;;;;;2.67;2.10;;;;;;;20.28;45.75;95254.00;10616990;27;20146;-49
2021/12/28 23:44:51;;;;;;;2.80;2.08;;;;;;;20.26;45.70;95248.94;10615603;27;20058;-49
2021/12/28 23:50:12;;;;;;;2.25;1.65;;;;;;;20.25;45.72;95244.69;10612818;27;20043;-48
2021/12/28 23:55:32;;;;;;;3.00;1.77;;;;;;;20.26;45.60;95250.88;10614431;27;20069;-50
